This is the latest recevied weather packets stored in our database for station/object W0BJ-1. If no packets are shown the sender has not sent any weather packets the latest 10 day(s).
| Time | Temp. | Humidity | Pressure | Rain* | Wind** | Luminosity | Snow |
|---|---|---|---|---|---|---|---|
| 1777647940 | 11.67° C | 52% | 1019.3 hPa | 0 mm | - | 675 W/m² | - |
| 1777645541 | 11.11° C | 52% | 1019.2 hPa | 0 mm | - | 564 W/m² | - |
| 1777644952 | 11.11° C | 55% | 1019.2 hPa | 0 mm | - | 534 W/m² | - |
| 1777644046 | 10.56° C | 56% | 1019 hPa | 0 mm | - | 485 W/m² | - |
| 1777643742 | 10.56° C | 58% | 1018.9 hPa | 0 mm | - | 469 W/m² | - |
| 1777641355 | 8.33° C | 68% | 1019.1 hPa | 0 mm | - | 236 W/m² | - |
| 1777638942 | 5° C | 83% | 1018.8 hPa | 0 mm | - | 90 W/m² | - |
| 1777638654 | 5° C | 83% | 1018.7 hPa | 0 mm | - | 63 W/m² | - |
| 1777634738 | 3.89° C | 80% | 1018.2 hPa | 0 mm | - | 14 W/m² | - |
| 1777634437 | 3.89° C | 80% | 1018.2 hPa | 0 mm | - | 12 W/m² | - |
| 1777633253 | 3.89° C | 79% | 1018.1 hPa | 0 mm | - | 0 W/m² | - |
| 1777632040 | 4.44° C | 78% | 1018.2 hPa | 0 mm | - | 0 W/m² | - |
| 1777631745 | 4.44° C | 77% | 1018.1 hPa | 0 mm | - | 0 W/m² | - |
| 1777630840 | 4.44° C | 75% | 1018.1 hPa | 0 mm | - | 0 W/m² | - |
| 1777630554 | 5° C | 75% | 1018 hPa | 0 mm | - | 0 W/m² | - |
| 1777630240 | 5° C | 75% | 1018 hPa | 0 mm | - | 0 W/m² | - |
| 1777628441 | 5.56° C | 74% | 1018.1 hPa | 0 mm | - | 0 W/m² | - |
| 1777627862 | 5.56° C | 74% | 1018 hPa | 0 mm | - | 0 W/m² | - |
| 1777623940 | 6.67° C | 74% | 1018 hPa | 0 mm | - | 0 W/m² | - |
| 1777623040 | 6.67° C | 74% | 1017.9 hPa | 0 mm | - | 0 W/m² | - |
| 1777621840 | 7.22° C | 77% | 1017.7 hPa | 0 mm | - | 0 W/m² | - |
| 1777619749 | 7.78° C | 79% | 1017.7 hPa | 0 mm | - | 0 W/m² | - |
| 1777618240 | 8.33° C | 78% | 1017.7 hPa | 0 mm | - | 0 W/m² | - |
| 1777617342 | 8.89° C | 77% | 1017.8 hPa | 0 mm | - | 0 W/m² | - |
| 1777610750 | 10.56° C | 84% | 1017.1 hPa | 0 mm | - | 0 W/m² | - |
* Rain latest hour (hover to see other rain measurements)
** Current wind speed in m/s (hover to see current wind gust speed)